createdAt,value
2023-05-13T00:03:18.158Z,6.10
2023-05-13T00:08:23.673Z,6.00
2023-05-13T00:13:27.919Z,5.55
2023-05-13T00:18:32.040Z,5.63
2023-05-13T00:23:38.027Z,5.93
2023-05-13T00:28:42.077Z,5.63
2023-05-13T00:33:46.104Z,5.80
2023-05-13T00:38:51.474Z,5.82
2023-05-13T00:43:57.006Z,6.10
2023-05-13T00:49:01.244Z,4.97
2023-05-13T00:54:06.935Z,5.43
2023-05-13T00:59:11.363Z,5.47
2023-05-13T01:04:28.996Z,4.90
2023-05-13T01:09:49.852Z,5.45
2023-05-13T01:15:00.885Z,5.00
2023-05-13T01:20:06.393Z,5.25
2023-05-13T01:25:12.006Z,4.95
2023-05-13T01:30:16.499Z,5.40
2023-05-13T01:35:22.256Z,5.18
2023-05-13T01:40:32.822Z,4.70
2023-05-13T01:45:43.046Z,4.60
2023-05-13T01:50:49.231Z,4.97
2023-05-13T01:55:54.707Z,4.18
2023-05-13T02:00:59.069Z,4.32
2023-05-13T02:06:03.200Z,3.92
2023-05-13T02:11:08.724Z,4.70
2023-05-13T02:16:15.703Z,4.03
2023-05-13T02:26:25.077Z,3.72
2023-05-13T02:31:29.233Z,3.67
2023-05-13T02:36:33.445Z,4.50
2023-05-13T02:41:39.587Z,3.90
2023-05-13T02:46:44.887Z,3.80
2023-05-13T02:51:48.928Z,4.18
2023-05-13T02:56:57.874Z,4.40
2023-05-13T03:02:01.999Z,4.70
2023-05-13T03:07:06.437Z,4.32
2023-05-13T03:12:11.916Z,4.63
2023-05-13T03:17:16.040Z,5.68
2023-05-13T03:22:20.702Z,5.43
2023-05-13T03:27:26.323Z,4.63
2023-05-13T03:32:32.099Z,4.78
2023-05-13T03:37:37.421Z,4.25
2023-05-13T03:42:44.242Z,4.50
2023-05-13T03:47:49.708Z,4.45
2023-05-13T03:52:55.200Z,4.63
2023-05-13T03:58:01.478Z,4.90
2023-05-13T04:03:06.258Z,4.95
2023-05-13T04:08:11.317Z,4.95
2023-05-13T04:13:16.834Z,4.68
2023-05-13T04:18:20.896Z,4.20
2023-05-13T04:23:25.011Z,5.03
2023-05-13T04:28:30.458Z,5.07
2023-05-13T04:38:40.326Z,4.30
2023-05-13T04:43:46.060Z,4.75
2023-05-13T04:48:50.262Z,5.10
2023-05-13T04:53:56.150Z,5.15
2023-05-13T04:59:01.766Z,5.15
2023-05-13T05:04:07.320Z,5.88
2023-05-13T05:14:18.159Z,5.15
2023-05-13T05:19:24.273Z,5.30
2023-05-13T05:24:30.391Z,5.30
2023-05-13T05:29:36.007Z,5.30
2023-05-13T05:34:40.335Z,5.47
2023-05-13T05:39:47.216Z,5.90
2023-05-13T05:44:52.888Z,5.13
2023-05-13T05:49:57.122Z,5.40
2023-05-13T05:55:03.172Z,5.88
2023-05-13T06:00:11.426Z,6.22
2023-05-13T06:05:21.573Z,5.55
2023-05-13T06:10:25.680Z,5.65
2023-05-13T06:15:31.934Z,5.95
2023-05-13T06:20:36.077Z,6.20
2023-05-13T06:25:40.137Z,4.95
2023-05-13T06:30:46.363Z,6.70
2023-05-13T06:35:50.477Z,5.27
2023-05-13T06:40:57.186Z,5.57
2023-05-13T06:46:11.865Z,6.15
2023-05-13T06:51:16.232Z,6.85
2023-05-13T06:56:20.537Z,6.57
2023-05-13T07:01:27.240Z,6.28
2023-05-13T07:06:32.099Z,6.95
2023-05-13T07:11:36.261Z,6.65
2023-05-13T07:16:41.696Z,6.50
2023-05-13T07:21:45.781Z,6.70
2023-05-13T07:26:49.836Z,6.70
2023-05-13T07:31:55.229Z,6.80
2023-05-13T07:36:59.309Z,7.50
2023-05-13T07:42:05.046Z,7.15
2023-05-13T07:47:11.128Z,7.07
2023-05-13T07:52:15.632Z,6.57
2023-05-13T07:57:19.708Z,6.90
2023-05-13T08:02:25.589Z,6.80
2023-05-13T08:07:30.670Z,6.85
2023-05-13T08:12:34.745Z,7.03
2023-05-13T08:17:40.157Z,5.70
2023-05-13T08:22:44.846Z,7.07
2023-05-13T08:27:48.873Z,6.43
2023-05-13T08:32:54.358Z,6.80
2023-05-13T08:37:58.513Z,6.55
2023-05-13T08:43:05.085Z,6.20
2023-05-13T08:48:11.381Z,6.07
2023-05-13T08:53:18.322Z,6.25
2023-05-13T09:03:30.081Z,5.28
2023-05-13T09:08:34.843Z,6.30
2023-05-13T09:13:38.997Z,5.93
2023-05-13T09:18:44.829Z,5.90
2023-05-13T09:23:48.891Z,5.28
2023-05-13T09:29:29.244Z,5.50
2023-05-13T09:34:36.239Z,5.20
2023-05-13T09:39:43.275Z,5.38
2023-05-13T09:44:48.957Z,4.43
2023-05-13T09:49:57.798Z,4.22
2023-05-13T09:55:04.763Z,4.78
2023-05-13T10:00:17.875Z,4.25
2023-05-13T10:05:27.649Z,3.75
2023-05-13T10:10:34.352Z,3.38
2023-05-13T10:20:44.179Z,3.97
2023-05-13T10:25:49.502Z,3.20
2023-05-13T10:30:53.936Z,3.67
2023-05-13T10:36:19.846Z,3.10
2023-05-13T10:41:51.146Z,3.30
2023-05-13T10:46:57.939Z,3.50
2023-05-13T10:52:08.526Z,3.28
2023-05-13T10:57:15.094Z,3.72
2023-05-13T11:02:24.750Z,3.38
2023-05-13T11:07:31.943Z,3.08
2023-05-13T11:12:36.028Z,3.25
2023-05-13T11:17:40.157Z,2.75
2023-05-13T11:22:45.610Z,2.80
2023-05-13T11:27:50.228Z,3.08
2023-05-13T11:32:57.315Z,3.53
2023-05-13T11:38:05.772Z,2.88
2023-05-13T11:43:10.873Z,2.90
2023-05-13T11:48:23.397Z,2.85
2023-05-13T11:53:29.179Z,2.72
2023-05-13T11:58:33.966Z,2.83
2023-05-13T12:03:38.084Z,2.60
2023-05-13T12:08:47.049Z,2.10
2023-05-13T12:13:52.937Z,2.78
2023-05-13T12:19:01.439Z,2.38
2023-05-13T12:24:19.472Z,2.70
2023-05-13T12:29:23.542Z,2.83
2023-05-13T12:34:32.814Z,2.53
2023-05-13T12:39:38.520Z,2.75
2023-05-13T12:44:45.188Z,3.13
2023-05-13T12:49:56.848Z,2.42
2023-05-13T12:55:02.326Z,2.60
2023-05-13T13:00:10.055Z,2.80
2023-05-13T13:05:14.425Z,2.55
2023-05-13T13:10:20.302Z,2.90
2023-05-13T13:15:24.512Z,2.80
2023-05-13T13:20:28.630Z,2.40
2023-05-13T13:25:34.232Z,2.10
2023-05-13T13:30:38.294Z,2.10
2023-05-13T13:35:43.447Z,2.33
2023-05-13T13:40:48.963Z,2.35
2023-05-13T13:45:53.016Z,2.45
2023-05-13T13:50:58.556Z,2.10
2023-05-13T13:56:04.179Z,2.10
2023-05-13T14:01:08.318Z,2.33
2023-05-13T14:06:12.446Z,2.10
2023-05-13T14:11:17.849Z,2.40
2023-05-13T14:16:22.006Z,2.00
2023-05-13T14:21:26.135Z,2.10
2023-05-13T14:26:31.845Z,2.55
2023-05-13T14:31:36.963Z,2.27
2023-05-13T14:36:41.173Z,2.03
2023-05-13T14:41:47.192Z,2.88
2023-05-13T14:46:52.027Z,2.30
2023-05-13T14:51:56.417Z,2.60
2023-05-13T14:57:01.843Z,2.17
2023-05-13T15:02:06.584Z,2.00
2023-05-13T15:07:10.842Z,2.45
2023-05-13T15:12:16.264Z,1.98
2023-05-13T15:17:20.476Z,1.98
2023-05-13T15:22:24.529Z,2.10
2023-05-13T15:27:30.040Z,2.40
2023-05-13T15:32:34.442Z,2.20
2023-05-13T15:37:38.721Z,2.30
2023-05-13T15:42:44.147Z,2.00
2023-05-13T15:47:48.359Z,2.20
2023-05-13T15:52:54.532Z,1.92
2023-05-13T15:57:59.966Z,2.13
2023-05-13T16:03:04.240Z,1.67
2023-05-13T16:08:08.317Z,2.20
2023-05-13T16:13:13.772Z,1.98
2023-05-13T16:18:17.893Z,2.30
2023-05-13T16:23:22.050Z,2.00
2023-05-13T16:28:27.678Z,1.83
2023-05-13T16:33:32.445Z,1.80
2023-05-13T16:38:36.533Z,2.00
2023-05-13T16:43:42.061Z,1.88
2023-05-13T16:48:46.269Z,1.90
2023-05-13T16:53:50.548Z,1.55
2023-05-13T16:58:55.903Z,1.90
2023-05-13T17:04:00.057Z,1.90
2023-05-13T17:09:04.592Z,2.22
2023-05-13T17:14:10.090Z,2.00
2023-05-13T17:19:14.208Z,2.33
2023-05-13T17:24:18.286Z,2.15
2023-05-13T17:29:25.665Z,2.20
2023-05-13T17:34:29.660Z,2.22
2023-05-13T17:39:33.763Z,2.30
2023-05-13T17:44:39.215Z,2.28
2023-05-13T17:49:43.430Z,2.40
2023-05-13T17:54:47.519Z,2.83
2023-05-13T17:59:54.083Z,2.78
2023-05-13T18:10:02.063Z,2.10
2023-05-13T18:15:09.080Z,2.33
2023-05-13T18:20:14.136Z,2.70
2023-05-13T18:25:18.377Z,2.72
2023-05-13T18:30:24.215Z,2.50
2023-05-13T18:35:28.613Z,2.67
2023-05-13T18:40:32.641Z,2.72
2023-05-13T18:45:38.128Z,3.17
2023-05-13T18:50:42.184Z,5.28
2023-05-13T18:55:46.740Z,2.75
2023-05-13T19:00:52.570Z,3.30
2023-05-13T19:05:56.909Z,3.07
2023-05-13T19:11:01.153Z,2.80
2023-05-13T19:16:07.210Z,3.15
2023-05-13T19:21:11.324Z,3.20
2023-05-13T19:26:15.738Z,3.65
2023-05-13T19:31:22.214Z,3.00
2023-05-13T19:36:26.355Z,3.13
2023-05-13T19:41:30.422Z,3.00
2023-05-13T19:46:35.977Z,3.22
2023-05-13T19:51:40.067Z,3.42
2023-05-13T19:56:44.128Z,2.92
2023-05-13T20:01:49.571Z,3.75
2023-05-13T20:06:53.779Z,3.58
2023-05-13T20:11:58.604Z,3.58
2023-05-13T20:17:04.385Z,3.83
2023-05-13T20:22:08.377Z,3.67
2023-05-13T20:27:12.625Z,3.90
2023-05-13T20:32:24.419Z,3.50
2023-05-13T20:37:29.553Z,3.92
2023-05-13T20:42:33.648Z,3.55
2023-05-13T20:47:39.042Z,4.38
2023-05-13T20:52:43.120Z,4.18
2023-05-13T20:57:47.135Z,4.97
2023-05-13T21:02:53.243Z,4.88
2023-05-13T21:07:57.428Z,5.00
2023-05-13T21:13:01.844Z,4.95
2023-05-13T21:18:08.315Z,5.00
2023-05-13T21:23:12.407Z,4.80
2023-05-13T21:28:16.474Z,4.40
2023-05-13T21:33:21.890Z,5.13
2023-05-13T21:38:26.897Z,5.07
2023-05-13T21:43:30.966Z,5.38
2023-05-13T21:48:36.400Z,5.70
2023-05-13T21:53:40.625Z,5.15
2023-05-13T21:58:44.717Z,5.85
2023-05-13T22:03:50.204Z,5.80
2023-05-13T22:08:54.332Z,6.32
2023-05-13T22:14:00.143Z,11.00
2023-05-13T22:19:05.632Z,9.90
2023-05-13T22:24:09.843Z,8.48
2023-05-13T22:29:13.925Z,7.35
2023-05-13T22:34:19.351Z,6.78
2023-05-13T22:39:23.408Z,6.78
2023-05-13T22:44:27.541Z,7.00
2023-05-13T22:49:32.942Z,7.15
2023-05-13T22:54:37.082Z,7.38
2023-05-13T22:59:41.084Z,8.27
2023-05-13T23:04:46.464Z,8.30
2023-05-13T23:09:50.549Z,8.48
2023-05-13T23:14:54.696Z,8.43
2023-05-13T23:20:00.162Z,8.80
2023-05-13T23:25:04.658Z,8.73
2023-05-13T23:30:10.546Z,8.70
2023-05-13T23:35:16.110Z,9.40
2023-05-13T23:40:20.572Z,9.95
2023-05-13T23:45:24.656Z,9.50
2023-05-13T23:50:30.114Z,9.77
2023-05-13T23:55:34.180Z,9.88
